Weather at Hartsfield Jackson Atlanta International Airport

Public forecast

Using degrees Fahrenheit for public forecast. Weather courtesy of forecast.io.

Current aviation weather report (METAR) for Hartsfield Jackson Atlanta International Airport

Retrieved 2020/10/22 02:52 UTC (12 minutes ago):

KATL 220252Z 09006KT 10SM FEW250 21/18 A3020 RMK AO2 SLP219 T02060178 53003

Aviation forecast (TAF) for Hartsfield Jackson Atlanta International Airport

Retrieved 2020-10-22 00:45 UTC (2 hours ago):

TAF KATL 212342Z 2200/2306 09007KT P6SM FEW035 SCT100 FM221000 07006KT P6SM BKN035 FM221200 07006KT P6SM BKN020 FM221400 08007KT P6SM SCT050 FM221700 09008KT P6SM SCT045 FM222100 10009KT P6SM SCT250